createdAt,value
2018-04-12T00:00:33.804Z,7.48
2018-04-12T00:01:33.829Z,7.43
2018-04-12T00:02:33.782Z,7.48
2018-04-12T00:03:33.772Z,7.47
2018-04-12T00:04:33.761Z,7.36
2018-04-12T00:05:33.751Z,7.38
2018-04-12T00:06:33.740Z,7.35
2018-04-12T00:07:33.730Z,7.39
2018-04-12T00:08:33.720Z,7.40
2018-04-12T00:09:33.710Z,7.35
2018-04-12T00:10:33.698Z,7.38
2018-04-12T00:11:33.689Z,7.29
2018-04-12T00:12:33.680Z,7.28
2018-04-12T00:13:33.667Z,7.25
2018-04-12T00:14:33.658Z,7.29
2018-04-12T00:15:33.648Z,7.24
2018-04-12T00:16:33.638Z,7.29
2018-04-12T00:17:33.633Z,7.23
2018-04-12T00:18:33.616Z,7.23
2018-04-12T00:19:33.606Z,7.32
2018-04-12T00:20:33.597Z,7.25
2018-04-12T00:21:33.585Z,7.24
2018-04-12T00:22:33.576Z,7.29
2018-04-12T00:23:33.565Z,7.21
2018-04-12T00:24:33.555Z,7.17
2018-04-12T00:25:33.547Z,7.21
2018-04-12T00:26:33.534Z,7.20
2018-04-12T00:27:33.523Z,7.20
2018-04-12T00:28:33.513Z,7.11
2018-04-12T00:29:33.501Z,7.20
2018-04-12T00:30:33.492Z,7.17
2018-04-12T00:31:33.482Z,7.20
2018-04-12T00:32:33.473Z,7.18
2018-04-12T00:33:33.460Z,7.24
2018-04-12T00:34:33.450Z,7.17
2018-04-12T00:35:33.439Z,7.20
2018-04-12T00:36:33.429Z,7.23
2018-04-12T00:37:33.419Z,7.11
2018-04-12T00:38:33.408Z,7.20
2018-04-12T00:39:33.398Z,7.20
2018-04-12T00:40:33.387Z,7.25
2018-04-12T00:41:33.376Z,7.14
2018-04-12T00:42:33.366Z,7.07
2018-04-12T00:43:33.357Z,7.21
2018-04-12T00:44:33.347Z,7.23
2018-04-12T00:45:33.334Z,7.07
2018-04-12T00:46:33.326Z,7.20
2018-04-12T00:47:33.314Z,7.20
2018-04-12T00:48:33.305Z,7.11
2018-04-12T00:49:33.293Z,7.18
2018-04-12T00:50:33.283Z,7.13
2018-04-12T00:51:33.272Z,7.15
2018-04-12T00:52:33.262Z,7.14
2018-04-12T00:53:33.257Z,7.18
2018-04-12T00:54:33.240Z,7.10
2018-04-12T00:55:33.232Z,7.23
2018-04-12T00:56:33.221Z,7.20
2018-04-12T00:57:33.210Z,7.21
2018-04-12T00:58:33.200Z,7.23
2018-04-12T00:59:33.189Z,7.35
2018-04-12T01:00:33.184Z,7.25
2018-04-12T01:01:33.168Z,7.29
2018-04-12T01:02:33.159Z,7.33
2018-04-12T01:03:33.148Z,7.24
2018-04-12T01:04:33.140Z,7.28
2018-04-12T01:05:33.127Z,7.23
2018-04-12T01:06:33.117Z,7.18
2018-04-12T01:07:33.107Z,7.21
2018-04-12T01:08:33.097Z,7.18
2018-04-12T01:09:33.087Z,7.18
2018-04-12T01:10:33.076Z,7.24
2018-04-12T01:11:33.067Z,7.21
2018-04-12T01:12:33.055Z,7.18
2018-04-12T01:13:33.044Z,7.10
2018-04-12T01:14:33.035Z,7.18
2018-04-12T01:15:33.024Z,7.21
2018-04-12T01:16:33.014Z,7.14
2018-04-12T01:17:33.003Z,7.14
2018-04-12T01:18:32.992Z,7.10
2018-04-12T01:19:32.982Z,7.07
2018-04-12T01:20:32.971Z,6.97
2018-04-12T01:21:32.961Z,6.99
2018-04-12T01:22:32.950Z,7.00
2018-04-12T01:23:32.940Z,6.96
2018-04-12T01:24:32.929Z,6.87
2018-04-12T01:25:32.919Z,6.97
2018-04-12T01:26:32.908Z,6.85
2018-04-12T01:27:32.898Z,6.93
2018-04-12T01:28:32.888Z,6.95
2018-04-12T01:29:32.877Z,6.97
2018-04-12T01:30:32.866Z,6.93
2018-04-12T01:31:32.856Z,6.92
2018-04-12T01:32:32.845Z,6.96
2018-04-12T01:33:32.836Z,6.97
2018-04-12T01:34:32.823Z,7.00
2018-04-12T01:35:32.815Z,6.87
2018-04-12T01:36:32.804Z,7.02
2018-04-12T01:37:32.792Z,7.00
2018-04-12T01:38:32.782Z,6.97
2018-04-12T01:39:32.775Z,6.97
2018-04-12T01:40:32.760Z,6.93
2018-04-12T01:41:32.751Z,6.99
2018-04-12T01:42:32.744Z,6.97
2018-04-12T01:43:32.728Z,6.89
2018-04-12T01:44:32.718Z,6.92
2018-04-12T01:45:32.708Z,6.85
2018-04-12T01:46:32.700Z,6.87
2018-04-12T01:47:32.687Z,6.88
2018-04-12T01:48:32.677Z,6.87
2018-04-12T01:49:32.665Z,6.87
2018-04-12T01:50:32.654Z,6.84
2018-04-12T01:51:32.643Z,6.87
2018-04-12T01:52:32.634Z,6.84
2018-04-12T01:53:32.622Z,6.88
2018-04-12T01:54:32.613Z,6.88
2018-04-12T01:55:32.601Z,6.87
2018-04-12T01:56:32.591Z,6.85
2018-04-12T01:57:32.581Z,6.82
2018-04-12T01:58:32.569Z,6.88
2018-04-12T01:59:32.562Z,6.79
2018-04-12T02:00:32.549Z,6.82
2018-04-12T02:01:32.538Z,6.79
2018-04-12T02:02:32.527Z,6.82
2018-04-12T02:03:32.516Z,6.82
2018-04-12T02:04:32.506Z,6.82
2018-04-12T02:05:32.496Z,6.88
2018-04-12T02:06:32.485Z,6.79
2018-04-12T02:07:32.475Z,6.81
2018-04-12T02:08:32.463Z,6.78
2018-04-12T02:09:32.452Z,6.81
2018-04-12T02:10:32.443Z,6.87
2018-04-12T02:11:32.432Z,6.85
2018-04-12T02:12:32.422Z,6.88
2018-04-12T02:13:32.410Z,6.81
2018-04-12T02:14:32.403Z,6.96
2018-04-12T02:15:32.390Z,6.96
2018-04-12T02:16:32.379Z,6.88
2018-04-12T02:17:32.369Z,6.82
2018-04-12T02:18:32.359Z,6.85
2018-04-12T02:19:32.349Z,6.96
2018-04-12T02:20:32.339Z,6.99
2018-04-12T02:21:32.327Z,7.03
2018-04-12T02:22:32.317Z,6.99
2018-04-12T02:23:32.307Z,6.95
2018-04-12T02:24:32.295Z,6.97
2018-04-12T02:25:32.284Z,7.00
2018-04-12T02:26:32.274Z,6.96
2018-04-12T02:27:32.264Z,6.92
2018-04-12T02:28:32.252Z,7.02
2018-04-12T02:29:32.242Z,6.93
2018-04-12T02:30:32.231Z,6.81
2018-04-12T02:31:32.221Z,6.81
2018-04-12T02:32:32.209Z,6.87
2018-04-12T02:33:32.246Z,6.99
2018-04-12T02:34:32.189Z,7.05
2018-04-12T02:35:32.178Z,6.99
2018-04-12T02:36:32.168Z,6.93
2018-04-12T02:37:32.156Z,6.89
2018-04-12T02:38:32.152Z,6.84
2018-04-12T02:39:32.137Z,6.78
2018-04-12T02:40:32.125Z,6.84
2018-04-12T02:41:32.120Z,6.84
2018-04-12T02:42:32.104Z,6.79
2018-04-12T02:43:32.094Z,6.78
2018-04-12T02:44:32.087Z,6.79
2018-04-12T02:45:32.072Z,6.79
2018-04-12T02:46:32.061Z,6.74
2018-04-12T02:47:32.051Z,6.75
2018-04-12T02:48:32.041Z,6.74
2018-04-12T02:49:32.029Z,6.74
2018-04-12T02:50:32.018Z,6.77
2018-04-12T02:51:32.008Z,6.72
2018-04-12T02:52:31.999Z,6.67
2018-04-12T02:53:31.988Z,6.74
2018-04-12T02:54:31.976Z,6.69
2018-04-12T02:55:31.965Z,6.69
2018-04-12T02:56:31.955Z,6.70
2018-04-12T02:57:31.943Z,6.64
2018-04-12T02:58:31.933Z,6.72
2018-04-12T02:59:31.923Z,6.66
2018-04-12T03:00:31.913Z,6.57
2018-04-12T03:01:31.901Z,6.62
2018-04-12T03:02:31.890Z,6.54
2018-04-12T03:03:31.880Z,6.49
2018-04-12T03:04:31.872Z,6.49
2018-04-12T03:05:31.859Z,6.51
2018-04-12T03:06:31.847Z,6.60
2018-04-12T03:07:31.839Z,6.52
2018-04-12T03:08:31.826Z,6.57
2018-04-12T03:09:31.816Z,6.60
2018-04-12T03:10:31.804Z,6.48
2018-04-12T03:11:31.795Z,6.51
2018-04-12T03:12:31.785Z,6.54
2018-04-12T03:13:31.773Z,6.51
2018-04-12T03:14:31.761Z,6.46
2018-04-12T03:15:31.752Z,6.39
2018-04-12T03:16:31.740Z,6.46
2018-04-12T03:17:31.728Z,6.41
2018-04-12T03:18:31.719Z,6.48
2018-04-12T03:19:31.707Z,6.41
2018-04-12T03:20:31.698Z,6.44
2018-04-12T03:21:31.686Z,6.38
2018-04-12T03:22:31.676Z,6.44
2018-04-12T03:23:31.666Z,6.35
2018-04-12T03:24:31.676Z,6.41
2018-04-12T03:25:31.646Z,6.33
2018-04-12T03:26:31.631Z,6.38
2018-04-12T03:27:31.622Z,6.28
2018-04-12T03:28:31.610Z,6.28
2018-04-12T03:29:31.600Z,6.19
2018-04-12T03:30:31.591Z,6.22
2018-04-12T03:31:31.581Z,6.19
2018-04-12T03:32:31.567Z,6.22
2018-04-12T03:33:31.556Z,6.16
2018-04-12T03:34:31.545Z,6.17
2018-04-12T03:35:31.534Z,6.16
2018-04-12T03:36:31.524Z,6.26
2018-04-12T03:37:31.511Z,6.11
2018-04-12T03:38:31.501Z,6.11
2018-04-12T03:39:31.490Z,6.16
2018-04-12T03:40:31.478Z,6.01
2018-04-12T03:41:31.468Z,6.01
2018-04-12T03:42:31.463Z,5.98
2018-04-12T03:43:31.446Z,5.90
2018-04-12T03:44:31.436Z,5.91
2018-04-12T03:45:31.422Z,5.91
2018-04-12T03:46:31.412Z,5.89
2018-04-12T03:47:31.401Z,5.90
2018-04-12T03:48:31.443Z,5.91
2018-04-12T03:49:31.383Z,5.99
2018-04-12T03:50:31.374Z,5.94
2018-04-12T03:51:31.357Z,5.91
2018-04-12T03:52:31.347Z,5.87
2018-04-12T03:53:31.335Z,5.84
2018-04-12T03:54:31.323Z,5.84
2018-04-12T03:55:31.314Z,5.86
2018-04-12T03:56:31.304Z,5.83
2018-04-12T03:57:31.293Z,5.89
2018-04-12T03:58:31.280Z,5.89
2018-04-12T03:59:31.270Z,5.80
2018-04-12T04:00:31.257Z,5.86
2018-04-12T04:01:31.246Z,5.82
2018-04-12T04:02:31.236Z,5.87
2018-04-12T04:03:31.224Z,5.84
2018-04-12T04:04:31.213Z,5.76
2018-04-12T04:05:31.201Z,5.86
2018-04-12T04:06:31.190Z,5.76
2018-04-12T04:07:31.185Z,5.75
2018-04-12T04:08:31.172Z,5.79
2018-04-12T04:09:31.158Z,5.76
2018-04-12T04:10:31.145Z,5.73
2018-04-12T04:11:31.136Z,5.72
2018-04-12T04:12:31.125Z,5.82
2018-04-12T04:13:31.113Z,5.83
2018-04-12T04:14:31.147Z,5.75
2018-04-12T04:15:31.091Z,5.76
2018-04-12T04:16:31.081Z,5.80
2018-04-12T04:17:31.067Z,5.76
2018-04-12T04:18:31.057Z,5.73
2018-04-12T04:19:31.045Z,5.76
2018-04-12T04:20:31.036Z,5.75
2018-04-12T04:21:31.023Z,5.72
2018-04-12T04:22:31.013Z,5.75
2018-04-12T04:23:31.001Z,5.71
2018-04-12T04:24:30.990Z,5.76
2018-04-12T04:25:30.978Z,5.75
2018-04-12T04:26:30.967Z,5.76
2018-04-12T04:27:30.958Z,5.83
2018-04-12T04:28:30.946Z,5.73
2018-04-12T04:29:30.933Z,5.73
2018-04-12T04:30:30.924Z,5.76
2018-04-12T04:31:30.912Z,5.86
2018-04-12T04:32:30.901Z,5.87
2018-04-12T04:33:30.890Z,5.97
2018-04-12T04:34:30.879Z,5.93
2018-04-12T04:35:30.869Z,5.87
2018-04-12T04:36:30.857Z,5.97
2018-04-12T04:37:30.849Z,6.11
2018-04-12T04:38:30.835Z,6.08
2018-04-12T04:39:30.825Z,6.16
2018-04-12T04:40:30.815Z,6.19
2018-04-12T04:41:30.802Z,6.30
2018-04-12T04:42:30.792Z,6.39
2018-04-12T04:43:30.781Z,6.41
2018-04-12T04:44:30.771Z,6.44
2018-04-12T04:45:30.762Z,6.63
2018-04-12T04:46:30.749Z,6.49
2018-04-12T04:47:30.741Z,6.69
2018-04-12T04:48:30.727Z,6.74
2018-04-12T04:49:30.716Z,6.72
2018-04-12T04:50:30.706Z,6.85
2018-04-12T04:51:30.697Z,6.87
2018-04-12T04:52:30.684Z,6.93
2018-04-12T04:53:30.672Z,6.95
2018-04-12T04:54:30.664Z,6.96
2018-04-12T04:55:30.652Z,7.11
2018-04-12T04:56:30.642Z,7.18
2018-04-12T04:57:30.631Z,7.15
2018-04-12T04:58:30.621Z,7.21
2018-04-12T04:59:30.611Z,7.21
2018-04-12T05:00:30.601Z,7.24
2018-04-12T05:01:30.630Z,7.33
2018-04-12T05:02:30.580Z,7.25
2018-04-12T05:03:30.570Z,7.35
2018-04-12T05:04:30.561Z,7.39
2018-04-12T05:05:30.549Z,7.36
2018-04-12T05:06:30.539Z,7.50
2018-04-12T05:07:30.529Z,7.50
2018-04-12T05:08:30.520Z,7.56
2018-04-12T05:09:30.510Z,7.54
2018-04-12T05:10:30.501Z,7.61
2018-04-12T05:11:30.489Z,7.54
2018-04-12T05:12:30.479Z,7.69
2018-04-12T05:13:30.467Z,7.70
2018-04-12T05:14:30.458Z,7.73
2018-04-12T05:15:30.489Z,7.76
2018-04-12T05:16:30.440Z,7.76
2018-04-12T05:17:30.430Z,7.85
2018-04-12T05:18:30.421Z,7.87
2018-04-12T05:19:30.410Z,7.90
2018-04-12T05:20:30.399Z,8.06
2018-04-12T05:21:30.388Z,7.93
2018-04-12T05:22:30.378Z,7.95
2018-04-12T05:23:30.370Z,8.06
2018-04-12T05:24:30.359Z,8.00
2018-04-12T05:25:30.348Z,8.00
2018-04-12T05:26:30.339Z,8.05
2018-04-12T05:27:30.330Z,8.05
2018-04-12T05:28:30.321Z,8.05
2018-04-12T05:29:30.310Z,8.05
2018-04-12T05:30:30.301Z,8.05
2018-04-12T05:31:30.291Z,8.01
2018-04-12T05:32:30.282Z,8.19
2018-04-12T05:33:30.272Z,8.19
2018-04-12T05:34:30.262Z,8.19
2018-04-12T05:35:30.252Z,8.20
2018-04-12T05:36:30.244Z,8.30
2018-04-12T05:37:30.233Z,8.27
2018-04-12T05:38:30.224Z,8.28
2018-04-12T05:39:30.215Z,8.36
2018-04-12T05:40:30.206Z,8.37
2018-04-12T05:41:30.195Z,8.41
2018-04-12T05:42:30.187Z,8.44
2018-04-12T05:43:30.176Z,8.44
2018-04-12T05:44:30.167Z,8.46
2018-04-12T05:45:30.157Z,8.42
2018-04-12T05:46:30.148Z,8.45
2018-04-12T05:47:30.140Z,8.55
2018-04-12T05:48:30.129Z,8.46
2018-04-12T05:49:30.119Z,8.53
2018-04-12T05:50:30.111Z,8.58
2018-04-12T05:51:30.101Z,8.63
2018-04-12T05:52:30.092Z,8.60
2018-04-12T05:53:30.082Z,8.66
2018-04-12T05:54:30.074Z,8.71
2018-04-12T05:55:30.064Z,8.67
2018-04-12T05:56:30.054Z,8.73
2018-04-12T05:57:30.045Z,8.71
2018-04-12T05:58:30.036Z,8.79
2018-04-12T05:59:30.031Z,8.78
2018-04-12T06:00:30.018Z,8.79
2018-04-12T06:01:30.008Z,8.88
2018-04-12T06:02:30.000Z,8.87
2018-04-12T06:03:29.989Z,8.85
2018-04-12T06:04:29.981Z,8.88
2018-04-12T06:05:29.970Z,8.78
2018-04-12T06:06:29.962Z,8.79
2018-04-12T06:07:29.954Z,8.85
2018-04-12T06:08:29.948Z,8.85
2018-04-12T06:09:29.936Z,8.76
2018-04-12T06:10:29.926Z,8.89
2018-04-12T06:11:29.918Z,8.82
2018-04-12T06:12:29.910Z,8.85
2018-04-12T06:13:29.899Z,8.95
2018-04-12T06:14:29.895Z,8.97
2018-04-12T06:15:29.885Z,8.91
2018-04-12T06:16:29.876Z,8.91
2018-04-12T06:17:29.865Z,9.00
2018-04-12T06:18:29.854Z,8.95
2018-04-12T06:19:29.846Z,8.88
2018-04-12T06:20:29.849Z,8.88
2018-04-12T06:21:29.828Z,8.91
2018-04-12T06:22:29.819Z,9.02
2018-04-12T06:23:29.811Z,9.02
2018-04-12T06:24:29.802Z,9.08
2018-04-12T06:25:29.793Z,9.11
2018-04-12T06:26:29.784Z,9.18
2018-04-12T06:27:29.775Z,9.31
2018-04-12T06:28:29.822Z,9.28
2018-04-12T06:29:29.757Z,9.43
2018-04-12T06:30:29.749Z,9.41
2018-04-12T06:31:29.741Z,9.39
2018-04-12T06:32:29.731Z,9.55
2018-04-12T06:33:29.722Z,9.56
2018-04-12T06:34:29.714Z,9.59
2018-04-12T06:35:29.705Z,9.54
2018-04-12T06:36:29.697Z,9.58
2018-04-12T06:37:29.687Z,9.55
2018-04-12T06:38:29.678Z,9.59
2018-04-12T06:39:29.670Z,9.62
2018-04-12T06:40:29.662Z,9.58
2018-04-12T06:41:29.652Z,9.64
2018-04-12T06:42:29.645Z,9.54
2018-04-12T06:43:29.636Z,9.58
2018-04-12T06:44:29.629Z,9.59
2018-04-12T06:45:29.618Z,9.51
2018-04-12T06:46:29.612Z,9.56
2018-04-12T06:47:29.602Z,9.56
2018-04-12T06:48:29.596Z,9.55
2018-04-12T06:49:29.588Z,9.56
2018-04-12T06:50:29.582Z,9.56
2018-04-12T06:51:29.567Z,9.59
2018-04-12T06:52:29.558Z,9.64
2018-04-12T06:53:29.549Z,9.65
2018-04-12T06:54:29.541Z,9.79
2018-04-12T06:55:29.533Z,9.82
2018-04-12T06:56:29.529Z,9.84
2018-04-12T06:57:29.514Z,9.77
2018-04-12T06:58:29.506Z,9.76
2018-04-12T06:59:29.540Z,9.79
2018-04-12T07:00:29.490Z,9.82
2018-04-12T07:01:29.485Z,9.77
2018-04-12T07:02:29.473Z,9.77
2018-04-12T07:03:29.464Z,9.74
2018-04-12T07:04:29.456Z,9.73
2018-04-12T07:05:29.447Z,9.65
2018-04-12T07:06:29.440Z,9.72
2018-04-12T07:07:29.430Z,9.72
2018-04-12T07:08:29.422Z,9.76
2018-04-12T07:09:29.414Z,9.84
2018-04-12T07:10:29.404Z,9.84
2018-04-12T07:11:29.396Z,9.84
2018-04-12T07:12:29.388Z,9.82
2018-04-12T07:13:29.380Z,9.80
2018-04-12T07:14:29.370Z,9.77
2018-04-12T07:15:29.362Z,9.79
2018-04-12T07:16:29.355Z,9.87
2018-04-12T07:17:29.346Z,9.86
2018-04-12T07:18:29.337Z,9.92
2018-04-12T07:19:29.329Z,9.89
2018-04-12T07:20:29.322Z,9.89
2018-04-12T07:21:29.312Z,10.01
2018-04-12T07:22:29.303Z,9.99
2018-04-12T07:23:29.295Z,10.04
2018-04-12T07:24:29.288Z,10.05
2018-04-12T07:25:29.278Z,10.16
2018-04-12T07:26:29.271Z,10.13
2018-04-12T07:27:29.263Z,10.19
2018-04-12T07:28:29.257Z,10.15
2018-04-12T07:29:29.245Z,10.16
2018-04-12T07:30:29.237Z,10.15
2018-04-12T07:31:29.229Z,10.10
2018-04-12T07:32:29.221Z,10.15
2018-04-12T07:33:29.214Z,10.17
2018-04-12T07:34:29.205Z,10.17
2018-04-12T07:35:29.198Z,10.01
2018-04-12T07:36:29.189Z,9.99
2018-04-12T07:37:29.184Z,10.05
2018-04-12T07:38:29.174Z,10.13
2018-04-12T07:39:29.165Z,10.25
2018-04-12T07:40:29.157Z,10.17
2018-04-12T07:41:29.149Z,10.20
2018-04-12T07:42:29.148Z,10.22
2018-04-12T07:43:29.133Z,10.23
2018-04-12T07:44:29.125Z,10.20
2018-04-12T07:45:29.118Z,10.28
2018-04-12T07:46:29.109Z,10.33
2018-04-12T07:47:29.102Z,10.26
2018-04-12T07:48:29.095Z,10.34
2018-04-12T07:49:29.087Z,10.30
2018-04-12T07:50:29.078Z,10.30
2018-04-12T07:51:29.070Z,10.31
2018-04-12T07:52:29.064Z,10.48
2018-04-12T07:53:29.055Z,10.49
2018-04-12T07:54:29.046Z,10.48
2018-04-12T07:55:29.088Z,10.51
2018-04-12T07:56:29.033Z,10.46
2018-04-12T07:57:29.024Z,10.49
2018-04-12T07:58:29.015Z,10.44
2018-04-12T07:59:29.007Z,10.37
2018-04-12T08:00:29.000Z,10.34
2018-04-12T08:01:28.991Z,10.31
2018-04-12T08:02:28.985Z,10.41
2018-04-12T08:03:28.976Z,10.42
2018-04-12T08:04:28.969Z,10.44
2018-04-12T08:05:28.959Z,10.42
2018-04-12T08:06:28.953Z,10.48
2018-04-12T08:07:28.945Z,10.48
2018-04-12T08:08:28.936Z,10.37
2018-04-12T08:09:28.928Z,10.42
2018-04-12T08:10:28.919Z,10.42
2018-04-12T08:11:28.915Z,10.51
2018-04-12T08:12:28.904Z,10.51
2018-04-12T08:13:28.897Z,10.67
2018-04-12T08:14:28.888Z,10.60
2018-04-12T08:15:28.881Z,10.74
2018-04-12T08:16:28.873Z,10.76
2018-04-12T08:17:28.864Z,10.87
2018-04-12T08:18:28.857Z,10.81
2018-04-12T08:19:28.851Z,10.84
2018-04-12T08:20:28.843Z,10.82
2018-04-12T08:21:28.834Z,10.76
2018-04-12T08:22:28.828Z,10.87
2018-04-12T08:23:28.820Z,10.90
2018-04-12T08:24:28.815Z,11.04
2018-04-12T08:25:28.803Z,11.05
2018-04-12T08:26:28.797Z,11.04
2018-04-12T08:27:28.788Z,11.12
2018-04-12T08:28:28.781Z,11.14
2018-04-12T08:29:28.773Z,11.14
2018-04-12T08:30:28.767Z,11.17
2018-04-12T08:31:28.759Z,11.22
2018-04-12T08:32:28.752Z,11.23
2018-04-12T08:33:28.744Z,11.19
2018-04-12T08:34:28.738Z,11.26
2018-04-12T08:35:28.731Z,11.29
2018-04-12T08:36:28.722Z,11.27
2018-04-12T08:37:28.715Z,11.40
2018-04-12T08:38:28.708Z,11.41
2018-04-12T08:39:28.701Z,11.45
2018-04-12T08:40:28.694Z,11.41
2018-04-12T08:41:28.686Z,11.52
2018-04-12T08:42:28.680Z,11.47
2018-04-12T08:43:28.673Z,11.57
2018-04-12T08:44:28.666Z,11.52
2018-04-12T08:45:28.658Z,11.57
2018-04-12T08:46:28.653Z,11.62
2018-04-12T08:47:28.646Z,11.77
2018-04-12T08:48:28.639Z,11.86
2018-04-12T08:49:28.633Z,11.70
2018-04-12T08:50:28.625Z,11.72
2018-04-12T08:51:28.620Z,11.81
2018-04-12T08:52:28.612Z,11.81
2018-04-12T08:53:28.606Z,11.90
2018-04-12T08:54:28.600Z,11.91
2018-04-12T08:55:28.595Z,11.99
2018-04-12T08:56:28.588Z,12.02
2018-04-12T08:57:28.581Z,12.00
2018-04-12T08:58:28.577Z,12.03
2018-04-12T08:59:28.570Z,12.00
2018-04-12T09:00:28.564Z,12.13
2018-04-12T09:01:28.558Z,12.15
2018-04-12T09:02:28.552Z,12.35
2018-04-12T09:03:28.547Z,12.43
2018-04-12T09:04:28.542Z,12.53
2018-04-12T09:05:28.535Z,12.53
2018-04-12T09:06:28.535Z,12.58
2018-04-12T09:07:28.530Z,12.60
2018-04-12T09:08:28.519Z,12.67
2018-04-12T09:09:28.513Z,12.72
2018-04-12T09:10:28.509Z,12.78
2018-04-12T09:11:28.504Z,12.87
2018-04-12T09:12:28.503Z,12.87
2018-04-12T09:13:28.493Z,12.78
2018-04-12T09:14:28.488Z,12.90
2018-04-12T09:15:28.485Z,12.85
2018-04-12T09:16:28.479Z,12.83
2018-04-12T09:17:28.473Z,12.86
2018-04-12T09:18:28.468Z,12.85
2018-04-12T09:19:28.467Z,12.83
2018-04-12T09:20:28.459Z,12.85
2018-04-12T09:21:28.452Z,12.75
2018-04-12T09:22:28.449Z,12.65
2018-04-12T09:23:28.444Z,12.55
2018-04-12T09:24:28.437Z,12.60
2018-04-12T09:25:28.432Z,12.58
2018-04-12T09:26:28.428Z,12.55
2018-04-12T09:27:28.421Z,12.67
2018-04-12T09:28:28.416Z,12.70
2018-04-12T09:29:28.412Z,12.85
2018-04-12T09:30:28.405Z,12.87
2018-04-12T09:31:28.401Z,12.80
2018-04-12T09:32:28.397Z,12.90
2018-04-12T09:33:28.389Z,12.79
2018-04-12T09:34:28.385Z,12.76
2018-04-12T09:35:28.380Z,12.83
2018-04-12T09:36:28.374Z,12.82
2018-04-12T09:37:28.369Z,12.86
2018-04-12T09:38:28.363Z,12.82
2018-04-12T09:39:28.358Z,12.85
2018-04-12T09:40:28.353Z,12.78
2018-04-12T09:41:28.346Z,12.91
2018-04-12T09:42:28.341Z,12.85
2018-04-12T09:43:28.337Z,12.91
2018-04-12T09:44:28.331Z,12.90
2018-04-12T09:45:28.325Z,12.82
2018-04-12T09:46:28.325Z,12.87
2018-04-12T09:47:28.320Z,12.90
2018-04-12T09:48:28.311Z,12.90
2018-04-12T09:49:28.361Z,12.91
2018-04-12T09:50:28.299Z,13.00
2018-04-12T09:51:28.295Z,13.08
2018-04-12T09:52:28.290Z,13.04
2018-04-12T09:53:28.287Z,13.19
2018-04-12T09:54:28.279Z,13.20
2018-04-12T09:55:28.274Z,13.23
2018-04-12T09:56:28.274Z,13.35
2018-04-12T09:57:28.263Z,13.38
2018-04-12T09:58:28.258Z,13.41
2018-04-12T09:59:28.255Z,13.41
2018-04-12T10:00:28.249Z,13.27
2018-04-12T10:01:28.244Z,13.37
2018-04-12T10:02:28.239Z,13.41
2018-04-12T10:03:28.235Z,13.38
2018-04-12T10:04:28.231Z,13.37
2018-04-12T10:05:28.225Z,13.27
2018-04-12T10:06:28.221Z,13.20
2018-04-12T10:07:28.217Z,13.11
2018-04-12T10:08:28.210Z,13.11
2018-04-12T10:09:28.206Z,13.22
2018-04-12T10:10:28.200Z,13.22
2018-04-12T10:11:28.196Z,13.23
2018-04-12T10:12:28.191Z,13.22
2018-04-12T10:13:28.184Z,13.30
2018-04-12T10:14:28.180Z,13.30
2018-04-12T10:15:28.176Z,13.25
2018-04-12T10:16:28.170Z,13.23
2018-04-12T10:17:28.191Z,13.25
2018-04-12T10:18:28.159Z,13.27
2018-04-12T10:19:28.154Z,13.28
2018-04-12T10:20:28.151Z,13.37
2018-04-12T10:21:28.144Z,13.25
2018-04-12T10:22:28.139Z,13.39
2018-04-12T10:23:28.134Z,13.53
2018-04-12T10:24:28.129Z,13.67
2018-04-12T10:25:28.125Z,13.75
2018-04-12T10:26:28.120Z,13.89
2018-04-12T10:27:28.115Z,14.05
2018-04-12T10:28:28.112Z,14.23
2018-04-12T10:29:28.106Z,14.44
2018-04-12T10:30:28.105Z,14.58
2018-04-12T10:31:28.100Z,14.60
2018-04-12T10:32:28.097Z,14.82
2018-04-12T10:33:28.094Z,14.97
2018-04-12T10:34:28.091Z,15.18
2018-04-12T10:35:28.089Z,15.36
2018-04-12T10:36:28.088Z,15.59
2018-04-12T10:37:28.085Z,15.82
2018-04-12T10:38:28.083Z,16.00
2018-04-12T10:39:28.084Z,16.26
2018-04-12T10:40:28.082Z,16.51
2018-04-12T10:41:28.084Z,16.81
2018-04-12T10:42:28.081Z,17.05
2018-04-12T10:43:28.083Z,17.42
2018-04-12T10:44:28.136Z,17.64
2018-04-12T10:45:28.085Z,17.54
2018-04-12T10:46:28.088Z,17.51
2018-04-12T10:47:28.090Z,17.67
2018-04-12T10:48:28.092Z,17.65
2018-04-12T10:49:28.094Z,17.83
2018-04-12T10:50:28.096Z,17.95
2018-04-12T10:51:28.100Z,17.92
2018-04-12T10:52:28.101Z,17.83
2018-04-12T10:53:28.102Z,17.57
2018-04-12T10:54:28.105Z,17.38
2018-04-12T10:55:28.107Z,17.24
2018-04-12T10:56:28.109Z,17.19
2018-04-12T10:57:28.110Z,17.12
2018-04-12T10:58:28.113Z,17.06
2018-04-12T10:59:28.118Z,17.08
2018-04-12T11:00:28.115Z,17.01
2018-04-12T11:01:28.116Z,16.97
2018-04-12T11:02:28.118Z,17.20
2018-04-12T11:03:28.145Z,17.30
2018-04-12T11:04:28.125Z,17.16
2018-04-12T11:05:28.126Z,17.05
2018-04-12T11:06:28.128Z,16.97
2018-04-12T11:07:28.128Z,16.96
2018-04-12T11:08:28.127Z,16.84
2018-04-12T11:09:28.127Z,16.76
2018-04-12T11:10:28.126Z,16.90
2018-04-12T11:11:28.128Z,16.84
2018-04-12T11:12:28.128Z,16.75
2018-04-12T11:13:28.126Z,16.41
2018-04-12T11:14:28.128Z,16.39
2018-04-12T11:15:28.127Z,16.35
2018-04-12T11:16:28.127Z,16.26
2018-04-12T11:17:28.124Z,16.23
2018-04-12T11:18:28.184Z,16.17
2018-04-12T11:19:28.123Z,16.12
2018-04-12T11:20:28.123Z,16.02
2018-04-12T11:21:28.121Z,15.97
2018-04-12T11:22:28.121Z,15.98
2018-04-12T11:23:28.118Z,15.95
2018-04-12T11:24:28.118Z,16.01
2018-04-12T11:25:28.229Z,15.91
2018-04-12T11:26:28.113Z,15.79
2018-04-12T11:27:28.113Z,15.76
2018-04-12T11:28:28.110Z,15.62
2018-04-12T11:29:28.113Z,15.64
2018-04-12T11:30:28.106Z,15.59
2018-04-12T11:31:28.126Z,15.54
2018-04-12T11:32:28.102Z,15.58
2018-04-12T11:33:28.098Z,15.49
2018-04-12T11:34:28.116Z,15.55
2018-04-12T11:35:28.095Z,15.67
2018-04-12T11:36:28.092Z,15.64
2018-04-12T11:37:28.089Z,15.77
2018-04-12T11:38:28.087Z,15.77
2018-04-12T11:39:28.084Z,15.77
2018-04-12T11:40:28.097Z,15.79
2018-04-12T11:41:28.078Z,15.73
2018-04-12T11:42:28.075Z,15.76
2018-04-12T11:43:28.077Z,15.90
2018-04-12T11:44:28.072Z,16.05
2018-04-12T11:45:28.077Z,16.61
2018-04-12T11:46:28.069Z,17.02
2018-04-12T11:47:28.068Z,17.06
2018-04-12T11:48:28.066Z,17.02
2018-04-12T11:49:28.071Z,17.19
2018-04-12T11:50:28.064Z,17.29
2018-04-12T11:51:28.064Z,17.39
2018-04-12T11:52:28.065Z,17.57
2018-04-12T11:53:28.064Z,17.76
2018-04-12T11:54:28.065Z,17.83
2018-04-12T11:55:28.078Z,17.94
2018-04-12T11:56:28.107Z,18.05
2018-04-12T11:57:28.067Z,18.18
2018-04-12T11:58:28.067Z,18.37
2018-04-12T11:59:28.368Z,18.37
2018-04-12T12:00:28.069Z,18.31
2018-04-12T12:01:28.074Z,18.23
2018-04-12T12:02:28.071Z,18.22
2018-04-12T12:03:28.074Z,18.49
2018-04-12T12:04:28.076Z,18.74
2018-04-12T12:05:28.077Z,18.71
2018-04-12T12:06:28.080Z,18.66
2018-04-12T12:07:28.082Z,18.29
2018-04-12T12:08:28.085Z,18.05
2018-04-12T12:09:28.086Z,18.28
2018-04-12T12:10:28.095Z,18.60
2018-04-12T12:11:28.092Z,18.59
2018-04-12T12:12:28.140Z,18.59
2018-04-12T12:13:28.097Z,18.83
2018-04-12T12:14:28.100Z,19.24
2018-04-12T12:15:28.104Z,19.44
2018-04-12T12:16:28.109Z,19.41
2018-04-12T12:17:28.111Z,19.30
2018-04-12T12:18:28.115Z,19.09
2018-04-12T12:19:28.119Z,19.09
2018-04-12T12:20:28.124Z,19.19
2018-04-12T12:21:28.127Z,19.39
2018-04-12T12:22:28.131Z,19.49
2018-04-12T12:23:28.135Z,19.67
2018-04-12T12:24:28.140Z,20.02
2018-04-12T12:25:28.144Z,20.03
2018-04-12T12:26:28.149Z,20.24
2018-04-12T12:27:28.155Z,20.31
2018-04-12T12:28:28.178Z,20.51
2018-04-12T12:29:28.166Z,20.41
2018-04-12T12:30:28.172Z,20.39
2018-04-12T12:31:28.178Z,20.40
2018-04-12T12:32:28.185Z,20.70
2018-04-12T12:33:28.193Z,20.84
2018-04-12T12:34:28.197Z,21.03
2018-04-12T12:35:28.204Z,21.07
2018-04-12T12:36:28.212Z,21.14
2018-04-12T12:37:28.217Z,21.02
2018-04-12T12:38:28.225Z,20.70
2018-04-12T12:39:28.230Z,20.37
2018-04-12T12:40:28.237Z,20.19
2018-04-12T12:41:28.241Z,20.11
2018-04-12T12:42:28.245Z,20.22
2018-04-12T12:43:28.254Z,20.41
2018-04-12T12:44:28.255Z,20.24
2018-04-12T12:45:28.260Z,20.03
2018-04-12T12:46:28.265Z,20.14
2018-04-12T12:47:28.274Z,20.07
2018-04-12T12:48:28.275Z,19.89
2018-04-12T12:49:28.277Z,20.02
2018-04-12T12:50:28.282Z,20.19
2018-04-12T12:51:28.287Z,20.16
2018-04-12T12:52:28.291Z,20.28
2018-04-12T12:53:28.295Z,20.44
2018-04-12T12:54:28.300Z,20.74
2018-04-12T12:55:28.306Z,21.00
2018-04-12T12:56:28.311Z,21.09
2018-04-12T12:57:28.316Z,21.29
2018-04-12T12:58:28.321Z,21.61
2018-04-12T12:59:28.326Z,21.93
2018-04-12T13:00:28.331Z,22.15
2018-04-12T13:01:28.339Z,22.43
2018-04-12T13:02:28.342Z,22.68
2018-04-12T13:03:28.348Z,22.73
2018-04-12T13:04:28.354Z,22.60
2018-04-12T13:05:28.359Z,22.20
2018-04-12T13:06:28.364Z,22.32